Sidi Ifni, Morocco
Current Conditions -  °F | °C
As of 1:00 PM on Friday 24 Oct 2014 (Local Time) from GMAG Reporting Station
Clear Clear  
Wind Chill: 75°   Ceiling: Unl
Heat Index: 75°   Visibility: 6mi
Dew Point: 55°   Wind: 5mph
Humidity: 50%   Direction: 290°WNW
Pressure: 29.94"   Gusts: NA
Location:  29.38°N, 10.18°W
Report Text: GMAG 241200Z 29004KT CAVOK 24/13 Q1014 NOSIG
Loading
Personal Weather Stations






























Interactive Weather Map New forecast layout! Learn more

10-Day Weather Forecast

Advertisements
Track Severe Weather on mobile